createdAt,value
2022-08-17T00:00:43.078Z,20.10
2022-08-17T00:03:10.686Z,18.80
2022-08-17T00:05:51.851Z,19.45
2022-08-17T00:08:25.294Z,19.85
2022-08-17T00:10:54.754Z,20.67
2022-08-17T00:13:25.675Z,20.48
2022-08-17T00:15:58.713Z,20.42
2022-08-17T00:19:06.127Z,20.98
2022-08-17T00:21:25.180Z,21.38
2022-08-17T00:23:53.792Z,21.23
2022-08-17T00:26:43.180Z,21.30
2022-08-17T00:29:19.916Z,20.35
2022-08-17T00:31:48.868Z,20.48
2022-08-17T00:34:17.084Z,21.13
2022-08-17T00:36:45.053Z,20.67
2022-08-17T00:39:12.922Z,21.33
2022-08-17T00:41:42.264Z,21.48
2022-08-17T00:44:13.081Z,21.85
2022-08-17T00:46:43.555Z,21.85
2022-08-17T00:49:12.809Z,21.88
2022-08-17T00:51:56.806Z,21.52
2022-08-17T00:54:41.822Z,20.98
2022-08-17T00:57:17.006Z,20.92
2022-08-17T00:59:56.052Z,20.65
2022-08-17T01:02:42.236Z,21.38
2022-08-17T01:05:20.888Z,21.05
2022-08-17T01:07:52.879Z,20.55
2022-08-17T01:10:59.577Z,21.90
2022-08-17T01:13:17.486Z,22.25
2022-08-17T01:15:54.952Z,21.20
2022-08-17T01:18:23.330Z,22.27
2022-08-17T01:20:54.131Z,22.02
2022-08-17T01:23:24.133Z,21.27
2022-08-17T01:25:55.099Z,22.55
2022-08-17T01:28:52.568Z,23.17
2022-08-17T01:31:14.042Z,24.00
2022-08-17T01:33:42.503Z,23.08
2022-08-17T01:36:10.595Z,23.17
2022-08-17T01:38:39.590Z,22.70
2022-08-17T01:41:12.435Z,22.70
2022-08-17T01:43:47.698Z,23.50
2022-08-17T01:46:22.453Z,23.35
2022-08-17T01:48:51.253Z,23.42
2022-08-17T01:51:20.101Z,23.67
2022-08-17T01:53:51.546Z,23.70
2022-08-17T01:56:23.921Z,23.38
2022-08-17T01:58:52.532Z,22.90
2022-08-17T02:01:23.485Z,23.73
2022-08-17T02:03:56.341Z,24.65
2022-08-17T02:06:53.715Z,23.83
2022-08-17T02:09:25.965Z,25.05
2022-08-17T02:11:56.386Z,24.52
2022-08-17T02:14:25.810Z,23.98
2022-08-17T02:16:54.389Z,24.48
2022-08-17T02:19:22.755Z,24.80
2022-08-17T02:21:53.131Z,24.85
2022-08-17T02:24:58.741Z,24.13
2022-08-17T02:27:19.837Z,24.70
2022-08-17T02:29:47.835Z,25.92
2022-08-17T02:32:27.201Z,25.42
2022-08-17T02:35:00.019Z,24.95
2022-08-17T02:37:30.047Z,26.05
2022-08-17T02:39:58.764Z,25.00
2022-08-17T02:42:39.672Z,25.40
2022-08-17T02:45:11.542Z,25.42
2022-08-17T02:47:40.492Z,25.70
2022-08-17T02:50:11.481Z,25.13
2022-08-17T02:52:44.187Z,25.40
2022-08-17T02:55:25.002Z,25.30
2022-08-17T02:57:53.589Z,25.60
2022-08-17T03:00:25.439Z,25.27
2022-08-17T03:02:54.090Z,25.80
2022-08-17T03:05:24.394Z,24.55
2022-08-17T03:07:52.595Z,23.92
2022-08-17T03:10:21.622Z,25.25
2022-08-17T03:12:50.338Z,24.60
2022-08-17T03:15:21.381Z,24.88
2022-08-17T03:17:49.862Z,25.38
2022-08-17T03:20:18.657Z,24.60
2022-08-17T03:22:53.408Z,24.88
2022-08-17T03:25:26.590Z,25.27
2022-08-17T03:27:55.063Z,25.27
2022-08-17T03:30:24.373Z,25.60
2022-08-17T03:32:54.899Z,25.20
2022-08-17T03:35:25.835Z,24.60
2022-08-17T03:38:00.709Z,24.77
2022-08-17T03:40:55.591Z,26.35
2022-08-17T03:43:19.545Z,25.77
2022-08-17T03:46:10.742Z,26.38
2022-08-17T03:49:14.838Z,25.30
2022-08-17T03:52:01.402Z,25.20
2022-08-17T03:54:48.425Z,24.77
2022-08-17T03:57:16.729Z,24.73
2022-08-17T03:59:45.351Z,24.17
2022-08-17T04:02:30.139Z,26.42
2022-08-17T04:04:58.943Z,25.35
2022-08-17T04:07:29.764Z,25.45
2022-08-17T04:10:01.694Z,24.77
2022-08-17T04:12:41.968Z,25.80
2022-08-17T04:15:10.399Z,25.35
2022-08-17T04:17:40.340Z,25.42
2022-08-17T04:20:09.485Z,25.75
2022-08-17T04:22:38.374Z,25.77
2022-08-17T04:25:18.209Z,24.92
2022-08-17T04:27:46.245Z,25.98
2022-08-17T04:30:14.498Z,25.50
2022-08-17T04:33:08.627Z,25.27
2022-08-17T04:35:41.309Z,26.80
2022-08-17T04:38:14.132Z,26.95
2022-08-17T04:41:01.463Z,26.63
2022-08-17T04:43:31.584Z,26.58
2022-08-17T04:46:08.490Z,25.90
2022-08-17T04:48:42.711Z,26.58
2022-08-17T04:51:18.651Z,25.42
2022-08-17T04:53:53.827Z,28.17
2022-08-17T04:56:25.806Z,26.50
2022-08-17T04:58:57.673Z,26.88
2022-08-17T05:01:31.233Z,27.42
2022-08-17T05:04:20.765Z,26.90
2022-08-17T05:06:50.383Z,27.65
2022-08-17T05:09:18.823Z,24.88
2022-08-17T05:11:51.802Z,25.73
2022-08-17T05:14:19.661Z,24.98
2022-08-17T05:16:51.083Z,27.17
2022-08-17T05:19:19.260Z,25.67
2022-08-17T05:21:54.334Z,25.48
2022-08-17T05:24:43.083Z,25.85
2022-08-17T05:27:10.352Z,23.45
2022-08-17T05:29:44.608Z,23.92
2022-08-17T05:32:38.614Z,22.58
2022-08-17T05:35:02.106Z,22.15
2022-08-17T05:37:30.039Z,21.60
2022-08-17T05:39:58.010Z,21.27
2022-08-17T05:42:26.112Z,20.75
2022-08-17T05:44:56.710Z,20.85
2022-08-17T05:47:26.354Z,21.23
2022-08-17T05:49:54.545Z,21.23
2022-08-17T05:52:47.616Z,22.00
2022-08-17T05:55:33.116Z,21.65
2022-08-17T05:58:28.859Z,21.63
2022-08-17T06:01:11.342Z,20.98
2022-08-17T06:03:49.462Z,19.95
2022-08-17T06:06:32.451Z,25.15
2022-08-17T06:09:05.783Z,22.67
2022-08-17T06:11:53.480Z,23.83
2022-08-17T06:14:40.186Z,24.13
2022-08-17T06:17:16.548Z,21.20
2022-08-17T06:20:15.357Z,21.65
2022-08-17T06:22:49.768Z,19.05
2022-08-17T06:25:31.685Z,20.50
2022-08-17T06:28:26.578Z,19.33
2022-08-17T06:31:01.220Z,17.80
2022-08-17T06:33:35.341Z,21.00
2022-08-17T06:36:55.761Z,19.55
2022-08-17T06:39:40.197Z,21.13
2022-08-17T06:42:59.972Z,20.25
2022-08-17T06:45:14.204Z,20.33
2022-08-17T06:47:57.459Z,19.83
2022-08-17T06:50:36.628Z,21.75
2022-08-17T06:53:26.761Z,19.05
2022-08-17T06:56:07.585Z,19.77
2022-08-17T06:58:41.605Z,21.10
2022-08-17T07:01:18.022Z,20.08
2022-08-17T07:04:12.586Z,19.98
2022-08-17T07:07:31.979Z,19.75
2022-08-17T07:10:01.277Z,20.00
2022-08-17T07:12:38.439Z,18.90
2022-08-17T07:15:15.727Z,18.40
2022-08-17T07:17:47.577Z,18.45
2022-08-17T07:20:21.140Z,16.00
2022-08-17T07:22:50.499Z,17.05
2022-08-17T07:25:30.520Z,18.30
2022-08-17T07:28:02.386Z,15.77
2022-08-17T07:30:45.747Z,16.60
2022-08-17T07:33:20.960Z,18.13
2022-08-17T07:35:50.078Z,16.90
2022-08-17T07:38:26.781Z,16.02
2022-08-17T07:40:58.009Z,16.50
2022-08-17T07:43:38.749Z,16.33
2022-08-17T07:46:35.033Z,16.70
2022-08-17T07:49:08.861Z,17.20
2022-08-17T07:51:52.883Z,12.80
2022-08-17T07:54:37.834Z,15.98
2022-08-17T07:57:14.363Z,16.05
2022-08-17T08:00:03.057Z,14.85
2022-08-17T08:02:47.330Z,14.63
2022-08-17T08:05:30.857Z,15.55
2022-08-17T08:08:25.987Z,14.13
2022-08-17T08:11:10.782Z,15.27
2022-08-17T08:13:43.614Z,14.60
2022-08-17T08:16:17.205Z,14.75
2022-08-17T08:18:55.770Z,14.98
2022-08-17T08:21:43.378Z,14.65
2022-08-17T08:24:23.121Z,15.93
2022-08-17T08:27:32.767Z,15.30
2022-08-17T08:30:09.655Z,16.38
2022-08-17T08:32:54.194Z,17.42
2022-08-17T08:35:46.579Z,16.90
2022-08-17T08:38:30.828Z,17.13
2022-08-17T08:41:45.802Z,17.58
2022-08-17T08:45:00.615Z,17.15
2022-08-17T08:47:35.469Z,17.15
2022-08-17T08:50:37.852Z,15.77
2022-08-17T08:53:37.731Z,17.35
2022-08-17T08:56:16.759Z,17.55
2022-08-17T08:58:59.416Z,17.40
2022-08-17T09:01:58.517Z,16.90
2022-08-17T09:05:13.310Z,16.55
2022-08-17T09:08:13.579Z,17.58
2022-08-17T09:10:59.542Z,17.20
2022-08-17T09:13:42.509Z,16.98
2022-08-17T09:16:20.247Z,15.73
2022-08-17T09:19:01.263Z,17.20
2022-08-17T09:21:44.610Z,17.17
2022-08-17T09:24:48.806Z,16.23
2022-08-17T09:27:26.624Z,16.27
2022-08-17T09:30:04.827Z,16.75
2022-08-17T09:32:44.599Z,15.40
2022-08-17T09:35:19.396Z,16.17
2022-08-17T09:38:28.043Z,15.80
2022-08-17T09:41:21.643Z,16.10
2022-08-17T09:44:23.641Z,15.10
2022-08-17T09:46:54.164Z,15.90
2022-08-17T09:49:29.197Z,16.73
2022-08-17T09:52:30.321Z,16.77
2022-08-17T09:55:01.456Z,16.85
2022-08-17T09:57:46.542Z,16.95
2022-08-17T10:00:27.177Z,17.52
2022-08-17T10:03:19.849Z,17.90
2022-08-17T10:06:06.842Z,17.23
2022-08-17T10:08:43.535Z,17.23
2022-08-17T10:11:44.883Z,16.80
2022-08-17T10:14:37.961Z,17.55
2022-08-17T10:17:37.299Z,18.00
2022-08-17T10:20:20.565Z,18.30
2022-08-17T10:23:18.810Z,17.77
2022-08-17T10:26:05.363Z,17.90
2022-08-17T10:28:40.785Z,18.65
2022-08-17T10:34:24.529Z,17.58
2022-08-17T10:37:20.127Z,18.10
2022-08-17T10:40:11.952Z,18.92
2022-08-17T10:42:58.868Z,18.67
2022-08-17T10:45:37.881Z,18.95
2022-08-17T10:48:10.059Z,20.33
2022-08-17T10:50:55.909Z,20.35
2022-08-17T10:53:32.805Z,20.77
2022-08-17T10:56:12.924Z,19.45
2022-08-17T10:59:02.122Z,19.77
2022-08-17T11:01:57.890Z,18.23
2022-08-17T11:04:34.808Z,21.25
2022-08-17T11:07:32.283Z,21.88
2022-08-17T11:10:21.383Z,20.50
2022-08-17T11:13:21.778Z,21.42
2022-08-17T11:16:32.605Z,18.92
2022-08-17T11:19:09.967Z,21.23
2022-08-17T11:21:51.979Z,21.75
2022-08-17T11:24:40.353Z,21.67
2022-08-17T11:27:33.980Z,21.00
2022-08-17T11:30:35.938Z,22.02
2022-08-17T11:33:38.306Z,22.13
2022-08-17T11:36:26.558Z,21.75
2022-08-17T11:39:13.076Z,21.65
2022-08-17T11:41:48.839Z,21.88
2022-08-17T11:44:53.548Z,24.17
2022-08-17T11:48:16.120Z,21.15
2022-08-17T11:51:46.902Z,21.83
2022-08-17T11:54:34.327Z,22.05
2022-08-17T11:57:25.717Z,21.58
2022-08-17T12:00:05.797Z,22.92
2022-08-17T12:02:47.343Z,23.20
2022-08-17T12:05:21.040Z,22.90
2022-08-17T12:07:55.204Z,23.58
2022-08-17T12:13:04.697Z,24.20
2022-08-17T12:15:37.804Z,24.17
2022-08-17T12:18:05.897Z,24.75
2022-08-17T12:20:40.680Z,23.75
2022-08-17T12:25:51.307Z,24.15
2022-08-17T12:28:30.379Z,23.90
2022-08-17T12:31:21.379Z,24.70
2022-08-17T12:33:51.783Z,24.08
2022-08-17T12:36:24.835Z,26.15
2022-08-17T12:39:14.058Z,25.50
2022-08-17T12:41:46.986Z,25.30
2022-08-17T12:44:16.644Z,25.55
2022-08-17T12:47:03.250Z,25.08
2022-08-17T12:49:37.853Z,26.23
2022-08-17T12:52:29.644Z,25.88
2022-08-17T12:55:08.979Z,25.75
2022-08-17T12:57:44.597Z,25.85
2022-08-17T13:00:20.505Z,25.73
2022-08-17T13:03:02.386Z,26.35
2022-08-17T13:05:40.968Z,25.77
2022-08-17T13:08:30.295Z,26.33
2022-08-17T13:11:06.971Z,24.65
2022-08-17T13:13:44.758Z,26.40
2022-08-17T13:16:17.155Z,26.20
2022-08-17T13:19:12.024Z,26.05
2022-08-17T13:21:50.564Z,26.45
2022-08-17T13:24:38.399Z,25.92
2022-08-17T13:27:12.154Z,25.48
2022-08-17T13:29:52.992Z,27.07
2022-08-17T13:32:33.790Z,26.75
2022-08-17T13:35:28.397Z,27.75
2022-08-17T13:41:35.189Z,26.90
2022-08-17T13:44:43.334Z,28.55
2022-08-17T13:47:22.257Z,28.30
2022-08-17T13:49:50.943Z,27.88
2022-08-17T13:52:58.813Z,27.83
2022-08-17T13:55:30.476Z,26.58
2022-08-17T13:58:06.515Z,26.60
2022-08-17T14:00:49.679Z,26.83
2022-08-17T14:03:25.072Z,26.75
2022-08-17T14:06:05.781Z,28.98
2022-08-17T14:08:34.167Z,28.08
2022-08-17T14:11:28.540Z,29.13
2022-08-17T14:14:25.896Z,29.42
2022-08-17T14:17:23.483Z,29.67
2022-08-17T14:20:23.104Z,28.25
2022-08-17T14:23:41.237Z,28.05
2022-08-17T14:26:23.299Z,29.20
2022-08-17T14:28:56.445Z,30.10
2022-08-17T14:31:28.007Z,28.85
2022-08-17T14:33:56.183Z,29.63
2022-08-17T14:36:24.169Z,29.55
2022-08-17T14:38:52.644Z,31.63
2022-08-17T14:41:23.378Z,31.67
2022-08-17T14:43:53.404Z,33.92
2022-08-17T14:46:21.267Z,31.55
2022-08-17T14:48:57.186Z,35.03
2022-08-17T14:51:28.495Z,34.95
2022-08-17T14:53:57.285Z,37.13
2022-08-17T14:56:26.070Z,36.20
2022-08-17T14:58:54.212Z,32.72
2022-08-17T15:01:24.406Z,32.30
2022-08-17T15:03:53.941Z,28.98
2022-08-17T15:06:22.698Z,30.63
2022-08-17T15:08:51.137Z,31.23
2022-08-17T15:11:19.012Z,26.67
2022-08-17T15:13:53.002Z,24.83
2022-08-17T15:16:21.415Z,23.83
2022-08-17T15:18:50.175Z,24.00
2022-08-17T15:21:22.145Z,24.50
2022-08-17T15:23:51.035Z,23.48
2022-08-17T15:26:25.693Z,23.35
2022-08-17T15:28:56.055Z,21.73
2022-08-17T15:31:32.337Z,23.48
2022-08-17T15:34:05.444Z,21.98
2022-08-17T15:36:36.512Z,21.58
2022-08-17T15:39:04.725Z,20.83
2022-08-17T15:41:32.972Z,22.17
2022-08-17T15:44:00.886Z,23.48
2022-08-17T15:46:29.044Z,24.92
2022-08-17T15:49:00.240Z,26.75
2022-08-17T15:51:30.994Z,28.17
2022-08-17T15:54:19.201Z,27.65
2022-08-17T15:56:50.936Z,28.88
2022-08-17T15:59:19.454Z,30.35
2022-08-17T16:03:15.877Z,30.80
2022-08-17T16:04:44.026Z,30.02
2022-08-17T16:07:14.585Z,32.50
2022-08-17T16:09:44.058Z,31.80
2022-08-17T16:12:16.589Z,30.38
2022-08-17T16:14:45.981Z,30.90
2022-08-17T16:17:38.918Z,31.48
2022-08-17T16:20:04.340Z,31.63
2022-08-17T16:22:35.525Z,30.98
2022-08-17T16:25:11.406Z,31.35
2022-08-17T16:27:39.573Z,29.88
2022-08-17T16:30:13.676Z,29.45
2022-08-17T16:32:45.480Z,30.30
2022-08-17T16:35:17.349Z,32.00
2022-08-17T16:37:45.867Z,31.15
2022-08-17T16:40:16.714Z,30.67
2022-08-17T16:42:49.420Z,30.52
2022-08-17T16:45:24.958Z,31.73
2022-08-17T16:48:01.950Z,32.13
2022-08-17T16:50:31.814Z,32.38
2022-08-17T16:53:18.589Z,32.60
2022-08-17T16:55:49.018Z,32.67
2022-08-17T16:58:16.951Z,31.77
2022-08-17T17:00:48.587Z,32.13
2022-08-17T17:03:20.556Z,29.88
2022-08-17T17:05:57.605Z,31.70
2022-08-17T17:09:03.897Z,30.75
2022-08-17T17:11:51.145Z,28.05
2022-08-17T17:14:30.487Z,27.98
2022-08-17T17:17:17.388Z,27.23
2022-08-17T17:19:47.296Z,26.73
2022-08-17T17:22:25.338Z,25.92
2022-08-17T17:25:01.208Z,25.17
2022-08-17T17:27:42.507Z,26.65
2022-08-17T17:30:33.357Z,24.88
2022-08-17T17:33:14.594Z,24.40
2022-08-17T17:35:50.817Z,23.70
2022-08-17T17:38:29.120Z,23.33
2022-08-17T17:41:02.484Z,18.58
2022-08-17T17:43:39.622Z,24.98
2022-08-17T17:46:28.688Z,22.95
2022-08-17T17:49:00.950Z,22.23
2022-08-17T17:52:09.201Z,18.98
2022-08-17T17:54:53.967Z,18.27
2022-08-17T17:57:47.026Z,19.15
2022-08-17T18:00:23.452Z,18.25
2022-08-17T18:03:13.243Z,21.25
2022-08-17T18:05:57.463Z,21.00
2022-08-17T18:11:55.067Z,21.83
2022-08-17T18:14:45.596Z,21.05
2022-08-17T18:17:16.493Z,21.63
2022-08-17T18:19:45.167Z,17.30
2022-08-17T18:22:21.434Z,19.10
2022-08-17T18:24:56.414Z,19.83
2022-08-17T18:27:51.285Z,19.13
2022-08-17T18:30:19.945Z,19.75
2022-08-17T18:32:48.355Z,19.00
2022-08-17T18:35:19.420Z,18.95
2022-08-17T18:38:17.986Z,19.50
2022-08-17T18:41:04.490Z,19.42
2022-08-17T18:43:53.221Z,19.38
2022-08-17T18:46:28.417Z,20.73
2022-08-17T18:49:03.494Z,20.52
2022-08-17T18:51:40.677Z,21.05
2022-08-17T18:54:23.040Z,22.60
2022-08-17T18:56:56.209Z,23.25
2022-08-17T18:59:46.993Z,24.38
2022-08-17T19:02:38.647Z,25.17
2022-08-17T19:05:08.556Z,26.38
2022-08-17T19:07:41.517Z,25.90
2022-08-17T19:10:28.385Z,26.50
2022-08-17T19:13:13.994Z,25.98
2022-08-17T19:16:20.332Z,25.88
2022-08-17T19:19:17.218Z,26.90
2022-08-17T19:21:59.034Z,27.60
2022-08-17T19:24:31.415Z,27.50
2022-08-17T19:27:41.797Z,29.85
2022-08-17T19:30:15.682Z,28.13
2022-08-17T19:32:43.722Z,29.10
2022-08-17T19:35:17.328Z,30.17
2022-08-17T19:38:20.202Z,28.92
2022-08-17T19:41:00.542Z,31.40
2022-08-17T19:44:26.914Z,31.42
2022-08-17T19:47:55.158Z,30.70
2022-08-17T19:50:39.087Z,32.08
2022-08-17T19:56:00.010Z,29.95
2022-08-17T19:58:45.950Z,26.83
2022-08-17T20:01:27.942Z,29.05
2022-08-17T20:04:19.278Z,30.23
2022-08-17T20:06:53.134Z,31.00
2022-08-17T20:09:39.069Z,31.70
2022-08-17T20:12:23.652Z,29.02
2022-08-17T20:14:57.316Z,29.45
2022-08-17T20:17:35.058Z,30.60
2022-08-17T20:20:19.631Z,30.50
2022-08-17T20:23:07.217Z,29.10
2022-08-17T20:25:59.369Z,27.85
2022-08-17T20:28:30.925Z,28.80
2022-08-17T20:30:59.774Z,29.10
2022-08-17T20:33:39.865Z,30.08
2022-08-17T20:36:21.906Z,27.83
2022-08-17T20:38:55.999Z,26.27
2022-08-17T20:41:26.917Z,27.85
2022-08-17T20:43:58.654Z,28.50
2022-08-17T20:46:36.789Z,27.20
2022-08-17T20:49:24.139Z,27.77
2022-08-17T20:52:00.633Z,28.45
2022-08-17T20:54:44.582Z,28.52
2022-08-17T20:57:32.132Z,26.30
2022-08-17T21:00:17.098Z,27.77
2022-08-17T21:02:52.616Z,26.70
2022-08-17T21:06:00.293Z,27.23
2022-08-17T21:08:54.739Z,28.13
2022-08-17T21:12:03.205Z,28.00
2022-08-17T21:14:29.715Z,27.80
2022-08-17T21:17:23.728Z,27.13
2022-08-17T21:20:12.602Z,26.95
2022-08-17T21:22:54.915Z,25.52
2022-08-17T21:25:49.246Z,24.92
2022-08-17T21:29:01.453Z,25.23
2022-08-17T21:31:49.059Z,22.92
2022-08-17T21:34:29.282Z,24.65
2022-08-17T21:37:21.682Z,24.15
2022-08-17T21:40:11.613Z,24.48
2022-08-17T21:42:50.728Z,25.23
2022-08-17T21:45:24.294Z,24.30
2022-08-17T21:48:18.809Z,23.30
2022-08-17T21:50:57.938Z,23.67
2022-08-17T21:53:38.795Z,22.20
2022-08-17T21:56:14.672Z,21.98
2022-08-17T21:58:54.754Z,22.67
2022-08-17T22:01:35.376Z,21.52
2022-08-17T22:04:18.506Z,22.35
2022-08-17T22:06:52.282Z,21.80
2022-08-17T22:09:46.022Z,21.05
2022-08-17T22:12:22.694Z,21.92
2022-08-17T22:14:56.199Z,20.83
2022-08-17T22:17:38.175Z,21.07
2022-08-17T22:20:14.857Z,21.17
2022-08-17T22:23:10.339Z,21.60
2022-08-17T22:26:09.757Z,22.35
2022-08-17T22:28:45.750Z,21.08
2022-08-17T22:31:29.282Z,21.05
2022-08-17T22:34:00.384Z,21.73
2022-08-17T22:36:38.956Z,22.38
2022-08-17T22:39:09.530Z,20.58
2022-08-17T22:41:59.285Z,22.10
2022-08-17T22:44:35.573Z,19.60
2022-08-17T22:47:30.711Z,21.27
2022-08-17T22:50:12.756Z,20.85
2022-08-17T22:53:03.085Z,20.98
2022-08-17T22:55:52.064Z,19.92
2022-08-17T22:58:42.118Z,19.08
2022-08-17T23:01:29.136Z,19.45
2022-08-17T23:04:10.926Z,19.45
2022-08-17T23:06:42.431Z,18.83
2022-08-17T23:09:10.487Z,18.90
2022-08-17T23:11:52.269Z,17.00
2022-08-17T23:14:21.441Z,16.92
2022-08-17T23:16:50.907Z,17.95
2022-08-17T23:19:21.350Z,16.75
2022-08-17T23:21:52.361Z,17.23
2022-08-17T23:24:23.076Z,15.70
2022-08-17T23:26:51.164Z,16.13
2022-08-17T23:29:21.555Z,15.77
2022-08-17T23:31:50.977Z,15.25
2022-08-17T23:34:19.419Z,15.32
2022-08-17T23:36:53.186Z,16.20
2022-08-17T23:39:24.416Z,17.05
2022-08-17T23:41:59.050Z,15.68
2022-08-17T23:44:28.720Z,15.80
2022-08-17T23:46:57.196Z,16.42
2022-08-17T23:49:25.495Z,16.60
2022-08-17T23:51:56.591Z,16.02
2022-08-17T23:54:41.543Z,16.15
2022-08-17T23:57:12.048Z,15.95
2022-08-17T23:59:40.656Z,15.02
